createdAt,value
2022-09-27T00:01:31.404Z,1.00
2022-09-27T00:04:06.492Z,0.70
2022-09-27T00:06:41.116Z,0.83
2022-09-27T00:09:12.046Z,1.00
2022-09-27T00:11:52.722Z,0.80
2022-09-27T00:14:22.950Z,0.70
2022-09-27T00:16:51.644Z,0.77
2022-09-27T00:19:27.809Z,0.80
2022-09-27T00:22:02.331Z,0.60
2022-09-27T00:24:31.647Z,0.60
2022-09-27T00:27:01.448Z,0.50
2022-09-27T00:29:40.093Z,0.70
2022-09-27T00:32:11.482Z,1.00
2022-09-27T00:34:42.380Z,0.80
2022-09-27T00:37:12.321Z,0.60
2022-09-27T00:39:41.690Z,0.60
2022-09-27T00:42:12.387Z,0.87
2022-09-27T00:45:22.029Z,0.70
2022-09-27T00:48:00.026Z,0.77
2022-09-27T00:50:32.351Z,0.70
2022-09-27T00:53:23.220Z,1.57
2022-09-27T00:56:02.353Z,1.10
2022-09-27T00:58:37.111Z,0.90
2022-09-27T01:01:13.785Z,1.00
2022-09-27T01:03:52.518Z,0.60
2022-09-27T01:06:23.559Z,0.87
2022-09-27T01:08:51.579Z,0.53
2022-09-27T01:11:40.179Z,0.90
2022-09-27T01:14:41.123Z,0.60
2022-09-27T01:17:31.265Z,0.73
2022-09-27T01:20:31.160Z,0.70
2022-09-27T01:23:32.984Z,0.80
2022-09-27T01:26:19.206Z,0.57
2022-09-27T01:29:10.176Z,0.60
2022-09-27T01:31:51.486Z,0.70
2022-09-27T01:34:30.148Z,0.53
2022-09-27T01:37:13.200Z,0.50
2022-09-27T01:39:52.423Z,0.33
2022-09-27T01:42:29.782Z,0.33
2022-09-27T01:45:13.158Z,0.50
2022-09-27T01:47:51.693Z,0.60
2022-09-27T01:50:33.665Z,0.53
2022-09-27T01:53:10.662Z,0.70
2022-09-27T01:55:42.486Z,0.80
2022-09-27T01:58:17.177Z,0.53
2022-09-27T02:00:52.100Z,0.60
2022-09-27T02:03:32.196Z,0.60
2022-09-27T02:06:20.725Z,0.43
2022-09-27T02:08:53.896Z,0.60
2022-09-27T02:11:22.165Z,0.70
2022-09-27T02:14:00.435Z,0.60
2022-09-27T02:16:43.934Z,0.80
2022-09-27T02:19:31.351Z,0.67
2022-09-27T02:22:13.680Z,0.60
2022-09-27T02:24:51.261Z,0.90
2022-09-27T02:27:41.651Z,0.37
2022-09-27T02:30:15.632Z,0.53
2022-09-27T02:32:46.291Z,0.53
2022-09-27T02:35:21.589Z,0.40
2022-09-27T02:37:52.053Z,0.40
2022-09-27T02:40:22.169Z,0.70
2022-09-27T02:42:51.843Z,0.60
2022-09-27T02:45:22.179Z,0.57
2022-09-27T02:48:20.493Z,0.67
2022-09-27T02:51:20.585Z,0.40
2022-09-27T02:54:12.167Z,0.43
2022-09-27T02:56:51.352Z,0.50
2022-09-27T02:59:31.789Z,0.40
2022-09-27T03:02:18.492Z,0.47
2022-09-27T03:04:55.679Z,0.50
2022-09-27T03:07:33.404Z,0.57
2022-09-27T03:10:02.476Z,0.60
2022-09-27T03:12:31.444Z,0.40
2022-09-27T03:15:02.328Z,0.50
2022-09-27T03:17:32.214Z,0.60
2022-09-27T03:20:02.272Z,0.60
2022-09-27T03:22:37.652Z,0.40
2022-09-27T03:25:12.562Z,0.23
2022-09-27T03:27:43.180Z,0.50
2022-09-27T03:30:16.285Z,0.77
2022-09-27T03:32:51.840Z,0.60
2022-09-27T03:35:21.991Z,0.47
2022-09-27T03:37:51.965Z,0.50
2022-09-27T03:40:21.980Z,0.57
2022-09-27T03:42:51.996Z,0.30
2022-09-27T03:45:22.818Z,0.30
2022-09-27T03:47:52.092Z,0.30
2022-09-27T03:50:22.133Z,0.43
2022-09-27T03:52:52.709Z,0.40
2022-09-27T03:55:21.604Z,0.60
2022-09-27T03:57:54.034Z,0.50
2022-09-27T04:00:23.208Z,0.30
2022-09-27T04:02:52.372Z,0.30
2022-09-27T04:05:24.063Z,0.50
2022-09-27T04:07:53.643Z,0.30
2022-09-27T04:10:22.493Z,0.40
2022-09-27T04:12:52.072Z,0.40
2022-09-27T04:15:22.829Z,0.80
2022-09-27T04:17:52.262Z,0.63
2022-09-27T04:20:21.437Z,0.50
2022-09-27T04:22:53.676Z,0.40
2022-09-27T04:25:22.068Z,0.63
2022-09-27T04:28:00.404Z,0.57
2022-09-27T04:30:32.944Z,0.20
2022-09-27T04:33:02.085Z,0.53
2022-09-27T04:35:50.867Z,0.40
2022-09-27T04:38:24.112Z,0.30
2022-09-27T04:40:52.223Z,0.50
2022-09-27T04:43:21.770Z,0.50
2022-09-27T04:45:52.602Z,0.57
2022-09-27T04:48:22.194Z,0.50
2022-09-27T04:51:03.784Z,0.50
2022-09-27T04:53:33.911Z,0.30
2022-09-27T04:56:11.044Z,0.40
2022-09-27T04:58:42.592Z,0.40
2022-09-27T05:01:12.583Z,0.60
2022-09-27T05:03:42.169Z,0.43
2022-09-27T05:06:12.192Z,0.40
2022-09-27T05:08:50.797Z,0.53
2022-09-27T05:11:34.223Z,0.40
2022-09-27T05:14:02.628Z,0.57
2022-09-27T05:16:40.723Z,0.60
2022-09-27T05:19:12.931Z,0.50
2022-09-27T05:21:43.132Z,0.67
2022-09-27T05:24:14.038Z,0.47
2022-09-27T05:26:42.219Z,0.50
2022-09-27T05:29:12.445Z,0.40
2022-09-27T05:31:43.209Z,0.50
2022-09-27T05:34:12.914Z,0.60
2022-09-27T05:36:42.397Z,0.63
2022-09-27T05:39:22.386Z,0.50
2022-09-27T05:42:01.895Z,0.70
2022-09-27T05:44:32.752Z,0.60
2022-09-27T05:47:04.270Z,1.03
2022-09-27T05:49:32.734Z,1.03
2022-09-27T05:52:02.322Z,0.60
2022-09-27T05:54:32.977Z,0.50
2022-09-27T05:57:02.780Z,0.60
2022-09-27T05:59:32.161Z,0.50
2022-09-27T06:02:02.301Z,0.40
2022-09-27T06:04:43.741Z,0.50
2022-09-27T06:07:13.256Z,0.63
2022-09-27T06:09:44.236Z,0.60
2022-09-27T06:12:12.555Z,0.60
2022-09-27T06:14:42.147Z,0.40
2022-09-27T06:17:13.043Z,0.60
2022-09-27T06:20:00.960Z,0.70
2022-09-27T06:22:32.654Z,0.57
2022-09-27T06:25:13.607Z,0.50
2022-09-27T06:27:42.391Z,0.60
2022-09-27T06:30:16.934Z,0.57
2022-09-27T06:32:52.074Z,0.50
2022-09-27T06:35:28.115Z,0.90
2022-09-27T06:38:01.285Z,0.50
2022-09-27T06:40:41.731Z,0.80
2022-09-27T06:43:14.269Z,0.67
2022-09-27T06:45:42.669Z,0.90
2022-09-27T06:48:13.799Z,0.40
2022-09-27T06:50:44.133Z,0.80
2022-09-27T06:53:18.217Z,0.60
2022-09-27T06:55:54.304Z,0.60
2022-09-27T06:58:40.455Z,0.40
2022-09-27T07:01:11.012Z,0.67
2022-09-27T07:03:44.204Z,0.50
2022-09-27T07:06:22.520Z,0.57
2022-09-27T07:08:53.239Z,0.70
2022-09-27T07:11:31.122Z,0.43
2022-09-27T07:14:10.986Z,0.70
2022-09-27T07:16:42.536Z,0.47
2022-09-27T07:19:14.336Z,0.50
2022-09-27T07:21:42.601Z,0.47
2022-09-27T07:24:12.820Z,0.60
2022-09-27T07:26:48.123Z,0.40
2022-09-27T07:29:22.380Z,0.40
2022-09-27T07:31:53.576Z,0.37
2022-09-27T07:34:22.903Z,0.30
2022-09-27T07:37:02.524Z,0.50
2022-09-27T07:39:41.270Z,0.50
2022-09-27T07:42:16.327Z,0.27
2022-09-27T07:44:44.479Z,0.20
2022-09-27T07:47:13.729Z,0.40
2022-09-27T07:49:42.625Z,0.30
2022-09-27T07:52:13.546Z,0.43
2022-09-27T07:54:48.686Z,0.40
2022-09-27T07:57:23.671Z,0.30
2022-09-27T07:59:52.780Z,0.70
2022-09-27T08:02:22.707Z,0.40
2022-09-27T08:04:54.575Z,0.47
2022-09-27T08:07:22.984Z,0.43
2022-09-27T08:09:52.566Z,0.30
2022-09-27T08:12:30.546Z,0.40
2022-09-27T08:15:04.653Z,0.40
2022-09-27T08:17:33.354Z,0.60
2022-09-27T08:20:14.778Z,0.63
2022-09-27T08:22:44.121Z,0.40
2022-09-27T08:25:14.076Z,0.70
2022-09-27T08:27:44.173Z,0.47
2022-09-27T08:30:12.961Z,0.40
2022-09-27T08:32:43.993Z,0.50
2022-09-27T08:35:16.572Z,0.47
2022-09-27T08:37:44.440Z,0.50
2022-09-27T08:40:24.208Z,0.57
2022-09-27T08:43:11.506Z,0.70
2022-09-27T08:46:24.043Z,0.50
2022-09-27T08:49:02.061Z,0.47
2022-09-27T08:51:34.832Z,0.40
2022-09-27T08:54:12.392Z,0.43
2022-09-27T08:56:43.439Z,0.47
2022-09-27T08:59:21.369Z,0.40
2022-09-27T09:01:52.894Z,0.50
2022-09-27T09:04:33.359Z,0.50
2022-09-27T09:07:12.626Z,0.40
2022-09-27T09:09:51.976Z,0.30
2022-09-27T09:12:52.015Z,0.50
2022-09-27T09:15:54.397Z,0.47
2022-09-27T09:18:42.294Z,0.60
2022-09-27T09:21:31.628Z,0.50
2022-09-27T09:24:21.185Z,0.40
2022-09-27T09:27:02.193Z,0.40
2022-09-27T09:29:53.857Z,0.37
2022-09-27T09:32:39.651Z,0.53
2022-09-27T09:35:20.158Z,0.47
2022-09-27T09:37:58.112Z,0.77
2022-09-27T09:40:42.475Z,0.90
2022-09-27T09:43:20.505Z,0.30
2022-09-27T09:46:03.013Z,0.53
2022-09-27T09:48:52.256Z,0.30
2022-09-27T09:51:51.961Z,0.30
2022-09-27T09:54:31.364Z,0.40
2022-09-27T09:57:04.634Z,0.30
2022-09-27T09:59:43.027Z,0.53
2022-09-27T10:02:32.790Z,0.40
2022-09-27T10:05:11.419Z,0.83
2022-09-27T10:07:43.090Z,0.30
2022-09-27T10:10:21.656Z,0.50
2022-09-27T10:12:53.180Z,0.50
2022-09-27T10:15:32.402Z,0.23
2022-09-27T10:18:13.932Z,0.23
2022-09-27T10:20:53.688Z,0.40
2022-09-27T10:23:32.734Z,0.40
2022-09-27T10:26:10.350Z,0.40
2022-09-27T10:28:51.468Z,0.50
2022-09-27T10:31:25.400Z,0.30
2022-09-27T10:34:06.945Z,0.33
2022-09-27T10:36:44.839Z,0.50
2022-09-27T10:39:23.856Z,0.30
2022-09-27T10:41:56.900Z,0.40
2022-09-27T10:44:42.201Z,0.47
2022-09-27T10:47:23.116Z,0.30
2022-09-27T10:50:13.448Z,0.37
2022-09-27T10:53:14.344Z,0.30
2022-09-27T10:55:54.582Z,0.50
2022-09-27T10:58:41.751Z,0.63
2022-09-27T11:01:23.095Z,0.50
2022-09-27T11:04:01.835Z,0.70
2022-09-27T11:06:40.644Z,0.80
2022-09-27T11:09:30.430Z,0.50
2022-09-27T11:12:13.343Z,0.50
2022-09-27T11:14:43.282Z,0.40
2022-09-27T11:17:29.589Z,0.60
2022-09-27T11:20:20.347Z,0.60
2022-09-27T11:23:24.914Z,0.80
2022-09-27T11:26:22.311Z,0.60
2022-09-27T11:29:11.244Z,0.60
2022-09-27T11:31:52.944Z,0.60
2022-09-27T11:34:54.182Z,0.50
2022-09-27T11:37:33.266Z,0.50
2022-09-27T11:40:14.070Z,0.50
2022-09-27T11:43:28.482Z,0.70
2022-09-27T11:46:20.737Z,0.50
2022-09-27T11:49:13.525Z,0.70
2022-09-27T11:52:02.812Z,1.23
2022-09-27T11:54:53.136Z,0.77
2022-09-27T11:57:31.825Z,0.50
2022-09-27T12:00:24.052Z,0.50
2022-09-27T12:03:32.136Z,0.70
2022-09-27T12:06:13.190Z,0.70
2022-09-27T12:09:02.931Z,0.43
2022-09-27T12:11:43.131Z,0.50
2022-09-27T12:14:26.732Z,0.60
2022-09-27T12:17:05.001Z,0.60
2022-09-27T12:19:41.853Z,0.50
2022-09-27T12:22:56.912Z,0.50
2022-09-27T12:25:33.195Z,1.00
2022-09-27T12:28:27.982Z,0.40
2022-09-27T12:31:28.620Z,0.70
2022-09-27T12:34:22.068Z,0.60
2022-09-27T12:37:12.948Z,0.50
2022-09-27T12:39:57.301Z,0.40
2022-09-27T12:42:33.830Z,0.70
2022-09-27T12:45:14.727Z,0.50
2022-09-27T12:48:05.312Z,0.57
2022-09-27T12:50:44.632Z,0.40
2022-09-27T12:53:23.564Z,0.60
2022-09-27T12:56:23.460Z,0.70
2022-09-27T12:59:22.143Z,0.60
2022-09-27T13:03:14.249Z,0.50
2022-09-27T13:06:13.427Z,0.70
2022-09-27T13:09:02.754Z,0.90
2022-09-27T13:11:52.689Z,1.00
2022-09-27T13:14:32.190Z,0.93
2022-09-27T13:17:03.505Z,0.90
2022-09-27T13:19:45.485Z,0.70
2022-09-27T13:22:43.582Z,0.90
2022-09-27T13:25:44.520Z,0.67
2022-09-27T13:28:33.889Z,0.93
2022-09-27T13:31:16.147Z,0.63
2022-09-27T13:34:03.690Z,0.80
2022-09-27T13:36:34.279Z,0.73
2022-09-27T13:39:24.063Z,0.70
2022-09-27T13:42:14.545Z,0.70
2022-09-27T13:45:07.242Z,0.50
2022-09-27T13:47:48.184Z,0.90
2022-09-27T13:50:33.455Z,0.90
2022-09-27T13:53:13.049Z,0.83
2022-09-27T13:55:55.319Z,0.90
2022-09-27T13:58:54.574Z,0.80
2022-09-27T14:01:32.866Z,0.40
2022-09-27T14:04:07.208Z,0.70
2022-09-27T14:06:43.479Z,0.90
2022-09-27T14:09:24.720Z,0.70
2022-09-27T14:12:03.833Z,1.00
2022-09-27T14:14:35.063Z,1.07
2022-09-27T14:17:13.605Z,0.63
2022-09-27T14:19:44.929Z,0.80
2022-09-27T14:22:21.990Z,0.93
2022-09-27T14:24:54.929Z,0.80
2022-09-27T14:27:30.759Z,0.70
2022-09-27T14:30:23.686Z,0.77
2022-09-27T14:33:03.827Z,0.87
2022-09-27T14:35:54.484Z,0.70
2022-09-27T14:38:38.040Z,0.70
2022-09-27T14:41:25.062Z,0.73
2022-09-27T14:44:03.735Z,0.63
2022-09-27T14:46:34.391Z,0.60
2022-09-27T14:49:35.553Z,0.97
2022-09-27T14:52:03.602Z,0.70
2022-09-27T14:54:34.445Z,0.80
2022-09-27T14:57:03.794Z,0.63
2022-09-27T14:59:43.936Z,0.60
2022-09-27T15:02:23.687Z,0.50
2022-09-27T15:04:57.076Z,0.80
2022-09-27T15:07:25.628Z,0.50
2022-09-27T15:09:54.471Z,0.80
2022-09-27T15:12:32.595Z,0.80
2022-09-27T15:15:13.286Z,0.60
2022-09-27T15:17:45.434Z,0.60
2022-09-27T15:20:35.236Z,0.70
2022-09-27T15:23:05.853Z,0.80
2022-09-27T15:25:45.127Z,0.90
2022-09-27T15:28:33.019Z,0.90
2022-09-27T15:31:13.816Z,0.87
2022-09-27T15:33:54.897Z,1.03
2022-09-27T15:36:54.729Z,0.90
2022-09-27T15:39:33.572Z,0.93
2022-09-27T15:42:09.612Z,1.00
2022-09-27T15:44:47.592Z,0.87
2022-09-27T15:47:53.511Z,1.00
2022-09-27T15:50:43.075Z,0.90
2022-09-27T15:53:34.440Z,0.70
2022-09-27T15:56:07.782Z,0.80
2022-09-27T15:58:42.348Z,0.80
2022-09-27T16:01:24.069Z,0.93
2022-09-27T16:03:55.114Z,1.30
2022-09-27T16:06:32.527Z,1.10
2022-09-27T16:09:12.158Z,1.23
2022-09-27T16:11:42.523Z,0.70
2022-09-27T16:14:17.912Z,0.70
2022-09-27T16:16:52.539Z,0.90
2022-09-27T16:19:24.189Z,0.80
2022-09-27T16:21:54.350Z,1.07
2022-09-27T16:24:25.170Z,0.57
2022-09-27T16:26:53.620Z,0.80
2022-09-27T16:29:24.350Z,1.10
2022-09-27T16:31:54.361Z,1.10
2022-09-27T16:34:24.047Z,1.00
2022-09-27T16:36:53.140Z,0.87
2022-09-27T16:39:25.590Z,1.00
2022-09-27T16:41:54.689Z,1.17
2022-09-27T16:44:24.094Z,1.33
2022-09-27T16:46:53.807Z,1.27
2022-09-27T16:49:55.124Z,1.20
2022-09-27T16:52:24.387Z,1.10
2022-09-27T16:54:54.233Z,1.20
2022-09-27T16:57:25.363Z,1.10
2022-09-27T16:59:54.527Z,1.17
2022-09-27T17:02:26.349Z,1.00
2022-09-27T17:05:05.921Z,0.70
2022-09-27T17:07:34.488Z,0.83
2022-09-27T17:10:03.220Z,1.77
2022-09-27T17:12:37.951Z,1.00
2022-09-27T17:15:07.523Z,1.07
2022-09-27T17:17:35.790Z,1.30
2022-09-27T17:20:13.690Z,1.30
2022-09-27T17:22:44.336Z,1.03
2022-09-27T17:25:13.908Z,1.17
2022-09-27T17:27:43.939Z,1.13
2022-09-27T17:30:14.737Z,1.20
2022-09-27T17:32:44.085Z,1.10
2022-09-27T17:35:15.831Z,1.20
2022-09-27T17:37:44.274Z,0.80
2022-09-27T17:40:16.256Z,0.70
2022-09-27T17:42:44.580Z,0.80
2022-09-27T17:45:14.469Z,0.50
2022-09-27T17:48:02.724Z,0.30
2022-09-27T17:50:36.545Z,1.00
2022-09-27T17:53:05.954Z,0.60
2022-09-27T17:55:34.620Z,0.60
2022-09-27T17:58:06.659Z,0.57
2022-09-27T18:00:36.074Z,5.20
2022-09-27T18:03:04.380Z,2.90
2022-09-27T18:05:43.012Z,2.97
2022-09-27T18:08:14.484Z,2.10
2022-09-27T18:10:44.316Z,3.33
2022-09-27T18:13:14.369Z,3.00
2022-09-27T18:15:43.959Z,1.77
2022-09-27T18:18:15.051Z,2.03
2022-09-27T18:20:55.154Z,1.60
2022-09-27T18:23:24.374Z,1.60
2022-09-27T18:26:01.775Z,1.57
2022-09-27T18:28:36.151Z,1.33
2022-09-27T18:31:11.954Z,1.03
2022-09-27T18:33:44.634Z,1.10
2022-09-27T18:36:23.920Z,0.90
2022-09-27T18:38:55.034Z,1.00
2022-09-27T18:41:26.197Z,1.03
2022-09-27T18:44:04.159Z,1.00
2022-09-27T18:46:41.699Z,1.10
2022-09-27T18:49:14.846Z,0.70
2022-09-27T18:51:51.982Z,0.97
2022-09-27T18:54:24.495Z,0.77
2022-09-27T18:56:54.286Z,0.63
2022-09-27T18:59:25.264Z,0.70
2022-09-27T19:01:56.306Z,0.50
2022-09-27T19:04:25.846Z,0.70
2022-09-27T19:07:02.285Z,0.80
2022-09-27T19:09:35.598Z,0.70
2022-09-27T19:12:04.891Z,0.60
2022-09-27T19:14:34.721Z,0.80
2022-09-27T19:17:04.647Z,0.73
2022-09-27T19:19:35.488Z,0.80
2022-09-27T19:22:06.172Z,1.03
2022-09-27T19:24:39.911Z,0.80
2022-09-27T19:27:13.037Z,0.93
2022-09-27T19:30:14.288Z,0.80
2022-09-27T19:32:45.688Z,0.90
2022-09-27T19:35:14.749Z,1.10
2022-09-27T19:37:51.882Z,0.87
2022-09-27T19:40:24.686Z,0.90
2022-09-27T19:42:54.708Z,1.20
2022-09-27T19:45:25.597Z,1.17
2022-09-27T19:47:55.686Z,0.70
2022-09-27T19:50:24.903Z,0.80
2022-09-27T19:52:56.157Z,1.23
2022-09-27T19:55:24.851Z,1.10
2022-09-27T19:57:59.488Z,0.90
2022-09-27T20:00:42.806Z,0.80
2022-09-27T20:03:15.060Z,0.90
2022-09-27T20:05:52.936Z,1.63
2022-09-27T20:08:45.233Z,1.60
2022-09-27T20:14:05.876Z,1.37
2022-09-27T20:16:41.382Z,1.03
2022-09-27T20:19:14.454Z,1.43
2022-09-27T20:21:45.902Z,1.40
2022-09-27T20:24:24.407Z,1.20
2022-09-27T20:26:54.673Z,1.40
2022-09-27T20:29:25.651Z,1.47
2022-09-27T20:32:22.874Z,2.43
2022-09-27T20:34:44.616Z,2.50
2022-09-27T20:37:14.252Z,2.30
2022-09-27T20:39:52.476Z,1.37
2022-09-27T20:42:26.013Z,2.33
2022-09-27T20:44:55.983Z,1.23
2022-09-27T20:47:24.739Z,0.67
2022-09-27T20:49:54.622Z,1.20
2022-09-27T20:52:25.097Z,0.93
2022-09-27T20:54:58.370Z,0.83
2022-09-27T20:57:40.409Z,0.70
2022-09-27T21:00:15.219Z,0.60
2022-09-27T21:02:46.226Z,0.97
2022-09-27T21:05:14.850Z,0.70
2022-09-27T21:07:45.696Z,0.73
2022-09-27T21:10:16.225Z,0.53
2022-09-27T21:12:49.813Z,0.90
2022-09-27T21:15:23.172Z,0.90
2022-09-27T21:17:56.695Z,0.50
2022-09-27T21:20:25.134Z,0.50
2022-09-27T21:22:59.095Z,0.60
2022-09-27T21:25:34.504Z,0.40
2022-09-27T21:28:04.867Z,0.67
2022-09-27T21:30:37.933Z,0.60
2022-09-27T21:33:06.075Z,0.47
2022-09-27T21:35:34.906Z,0.50
2022-09-27T21:38:04.901Z,0.70
2022-09-27T21:40:41.905Z,0.50
2022-09-27T21:43:14.447Z,0.40
2022-09-27T21:45:45.403Z,0.70
2022-09-27T21:48:14.824Z,0.40
2022-09-27T21:50:54.972Z,0.57
2022-09-27T21:53:26.560Z,0.30
2022-09-27T21:56:03.434Z,0.60
2022-09-27T21:58:44.574Z,0.50
2022-09-27T22:01:32.580Z,0.70
2022-09-27T22:04:05.211Z,0.43
2022-09-27T22:06:38.518Z,0.40
2022-09-27T22:09:13.473Z,0.50
2022-09-27T22:12:09.773Z,0.60
2022-09-27T22:14:38.871Z,1.00
2022-09-27T22:17:08.571Z,1.37
2022-09-27T22:19:36.393Z,0.83
2022-09-27T22:22:04.976Z,1.03
2022-09-27T22:24:36.260Z,0.70
2022-09-27T22:27:13.629Z,0.40
2022-09-27T22:29:45.016Z,0.50
2022-09-27T22:32:15.050Z,0.40
2022-09-27T22:34:44.799Z,0.40
2022-09-27T22:37:15.641Z,0.73
2022-09-27T22:39:45.047Z,0.60
2022-09-27T22:42:22.996Z,0.60
2022-09-27T22:44:53.627Z,0.67
2022-09-27T22:47:25.400Z,0.43
2022-09-27T22:49:55.217Z,0.63
2022-09-27T22:52:25.351Z,0.40
2022-09-27T22:54:56.133Z,0.70
2022-09-27T22:57:27.277Z,0.53
2022-09-27T22:59:56.225Z,0.53
2022-09-27T23:02:25.124Z,0.50
2022-09-27T23:04:55.555Z,0.50
2022-09-27T23:07:25.281Z,0.47
2022-09-27T23:09:54.685Z,0.47
2022-09-27T23:12:26.996Z,0.40
2022-09-27T23:15:02.119Z,1.00
2022-09-27T23:17:34.756Z,0.50
2022-09-27T23:20:05.313Z,0.53
2022-09-27T23:22:35.285Z,0.37
2022-09-27T23:25:07.480Z,0.40
2022-09-27T23:27:56.826Z,0.40
2022-09-27T23:30:33.715Z,0.33
2022-09-27T23:33:04.156Z,0.30
2022-09-27T23:35:35.476Z,0.70
2022-09-27T23:38:06.894Z,0.30
2022-09-27T23:40:36.099Z,0.40
2022-09-27T23:43:06.581Z,0.40
2022-09-27T23:45:44.603Z,0.50
2022-09-27T23:48:15.398Z,0.40
2022-09-27T23:50:46.277Z,0.60
2022-09-27T23:53:17.384Z,0.50
2022-09-27T23:55:46.360Z,0.60
2022-09-27T23:58:21.007Z,0.50
